createdAt,value
2019-02-22T00:01:17.677Z,1.38
2019-02-22T00:02:24.421Z,1.28
2019-02-22T00:03:28.057Z,1.22
2019-02-22T00:04:31.689Z,1.23
2019-02-22T00:05:35.330Z,1.25
2019-02-22T00:06:38.999Z,1.26
2019-02-22T00:07:42.636Z,1.24
2019-02-22T00:08:46.272Z,1.21
2019-02-22T00:09:49.994Z,1.17
2019-02-22T00:10:56.631Z,1.09
2019-02-22T00:12:00.426Z,1.05
2019-02-22T00:13:04.092Z,1.09
2019-02-22T00:14:08.148Z,1.07
2019-02-22T00:15:11.784Z,1.08
2019-02-22T00:16:15.423Z,1.04
2019-02-22T00:17:19.151Z,1.09
2019-02-22T00:18:22.802Z,1.14
2019-02-22T00:19:26.367Z,1.16
2019-02-22T00:20:30.011Z,1.16
2019-02-22T00:21:33.649Z,1.17
2019-02-22T00:22:37.252Z,1.18
2019-02-22T00:23:40.898Z,1.13
2019-02-22T00:24:44.546Z,1.07
2019-02-22T00:25:48.183Z,1.04
2019-02-22T00:26:51.824Z,0.98
2019-02-22T00:27:55.467Z,1.01
2019-02-22T00:28:59.115Z,1.03
2019-02-22T00:30:02.745Z,1.04
2019-02-22T00:31:06.467Z,1.06
2019-02-22T00:32:10.149Z,1.15
2019-02-22T00:33:14.209Z,1.20
2019-02-22T00:34:17.873Z,1.18
2019-02-22T00:35:21.487Z,1.14
2019-02-22T00:36:25.119Z,1.15
2019-02-22T00:37:28.757Z,1.20
2019-02-22T00:38:32.426Z,1.18
2019-02-22T00:39:36.053Z,1.12
2019-02-22T00:40:39.686Z,1.13
2019-02-22T00:41:43.248Z,1.20
2019-02-22T00:42:46.899Z,1.25
2019-02-22T00:43:50.604Z,1.26
2019-02-22T00:44:54.187Z,1.22
2019-02-22T00:45:57.816Z,1.20
2019-02-22T00:47:01.381Z,1.28
2019-02-22T00:48:05.019Z,1.35
2019-02-22T00:49:08.698Z,1.38
2019-02-22T00:50:12.342Z,1.38
2019-02-22T00:51:16.000Z,1.34
2019-02-22T00:52:19.642Z,1.29
2019-02-22T00:53:23.563Z,1.23
2019-02-22T00:54:27.234Z,1.23
2019-02-22T00:55:30.867Z,1.19
2019-02-22T00:56:34.583Z,1.14
2019-02-22T00:57:38.227Z,1.09
2019-02-22T00:58:41.863Z,1.11
2019-02-22T00:59:45.459Z,1.10
2019-02-22T01:00:49.097Z,1.05
2019-02-22T01:01:52.731Z,1.05
2019-02-22T01:02:56.386Z,1.06
2019-02-22T01:04:00.014Z,1.02
2019-02-22T01:05:03.688Z,1.04
2019-02-22T01:06:07.260Z,0.97
2019-02-22T01:07:10.899Z,0.93
2019-02-22T01:08:14.567Z,0.87
2019-02-22T01:09:18.220Z,0.89
2019-02-22T01:10:30.813Z,0.81
2019-02-22T01:11:27.235Z,0.75
2019-02-22T01:12:30.874Z,0.72
2019-02-22T01:13:34.595Z,0.70
2019-02-22T01:14:38.549Z,0.68
2019-02-22T01:15:42.596Z,0.73
2019-02-22T01:16:46.231Z,0.62
2019-02-22T01:17:49.864Z,0.52
2019-02-22T01:18:53.446Z,0.40
2019-02-22T01:19:57.080Z,0.39
2019-02-22T01:21:00.744Z,0.37
2019-02-22T01:22:04.371Z,0.32
2019-02-22T01:23:08.006Z,0.25
2019-02-22T01:24:11.992Z,0.30
2019-02-22T01:25:15.630Z,0.24
2019-02-22T01:26:19.300Z,0.20
2019-02-22T01:27:22.936Z,0.21
2019-02-22T01:28:26.607Z,0.21
2019-02-22T01:29:30.205Z,0.14
2019-02-22T01:30:33.780Z,0.19
2019-02-22T01:31:37.449Z,0.26
2019-02-22T01:32:41.172Z,0.30
2019-02-22T01:33:44.741Z,0.34
2019-02-22T01:34:48.382Z,0.33
2019-02-22T01:35:52.014Z,0.29
2019-02-22T01:36:55.620Z,0.30
2019-02-22T01:37:59.255Z,0.29
2019-02-22T01:39:04.532Z,0.36
2019-02-22T01:40:10.449Z,0.39
2019-02-22T01:41:14.081Z,0.35
2019-02-22T01:42:17.754Z,0.36
2019-02-22T01:43:21.323Z,0.38
2019-02-22T01:44:25.033Z,0.39
2019-02-22T01:45:29.287Z,0.36
2019-02-22T01:46:33.219Z,0.38
2019-02-22T01:47:36.893Z,0.40
2019-02-22T01:48:40.525Z,0.42
2019-02-22T01:49:44.090Z,0.40
2019-02-22T01:50:47.724Z,0.42
2019-02-22T01:51:51.364Z,0.37
2019-02-22T01:52:55.032Z,0.26
2019-02-22T01:53:58.986Z,0.17
2019-02-22T01:55:02.629Z,0.19
2019-02-22T01:56:06.194Z,0.26
2019-02-22T01:57:09.843Z,0.33
2019-02-22T01:58:13.501Z,0.24
2019-02-22T01:59:17.148Z,0.11
2019-02-22T02:00:20.867Z,0.06
2019-02-22T02:01:24.495Z,0.13
2019-02-22T02:02:28.203Z,0.09
2019-02-22T02:03:31.900Z,0.08
2019-02-22T02:04:35.549Z,0.04
2019-02-22T02:05:39.183Z,0.02
2019-02-22T02:06:42.832Z,0.08
2019-02-22T02:07:46.469Z,0.13
2019-02-22T02:08:50.142Z,0.11
2019-02-22T02:09:53.776Z,-0.01
2019-02-22T02:10:57.441Z,-0.08
2019-02-22T02:12:02.082Z,-0.07
2019-02-22T02:13:05.798Z,-0.04
2019-02-22T02:14:09.536Z,0.03
2019-02-22T02:15:13.439Z,-0.01
2019-02-22T02:16:17.097Z,-0.07
2019-02-22T02:17:21.057Z,-0.10
2019-02-22T02:18:24.691Z,-0.13
2019-02-22T02:19:28.382Z,-0.12
2019-02-22T02:20:32.430Z,-0.13
2019-02-22T02:21:36.115Z,-0.08
2019-02-22T02:22:39.751Z,-0.06
2019-02-22T02:23:43.390Z,-0.04
2019-02-22T02:24:47.073Z,-0.04
2019-02-22T02:25:50.729Z,-0.05
2019-02-22T02:26:54.370Z,-0.07
2019-02-22T02:27:58.009Z,0.04
2019-02-22T02:29:01.724Z,0.07
2019-02-22T02:30:07.958Z,0.06
2019-02-22T02:31:11.588Z,-0.10
2019-02-22T02:32:15.238Z,-0.21
2019-02-22T02:33:19.147Z,-0.19
2019-02-22T02:34:22.757Z,-0.14
2019-02-22T02:35:26.850Z,-0.15
2019-02-22T02:36:30.497Z,-0.11
2019-02-22T02:37:34.137Z,-0.10
2019-02-22T02:38:38.104Z,-0.11
2019-02-22T02:39:41.733Z,-0.14
2019-02-22T02:40:45.424Z,-0.18
2019-02-22T02:41:49.204Z,-0.15
2019-02-22T02:42:52.886Z,-0.12
2019-02-22T02:43:56.638Z,-0.14
2019-02-22T02:45:00.558Z,-0.12
2019-02-22T02:46:04.234Z,-0.07
2019-02-22T02:47:07.877Z,-0.03
2019-02-22T02:48:11.524Z,-0.02
2019-02-22T02:49:15.156Z,0.01
2019-02-22T02:50:18.796Z,0.03
2019-02-22T02:51:22.480Z,-0.03
2019-02-22T02:52:26.123Z,-0.09
2019-02-22T02:53:29.855Z,-0.19
2019-02-22T02:54:33.514Z,-0.22
2019-02-22T02:55:37.152Z,-0.35
2019-02-22T02:56:40.827Z,-0.34
2019-02-22T02:57:44.465Z,-0.36
2019-02-22T02:58:48.097Z,-0.36
2019-02-22T02:59:51.741Z,-0.45
2019-02-22T03:00:55.385Z,-0.48
2019-02-22T03:01:59.227Z,-0.46
2019-02-22T03:03:02.874Z,-0.48
2019-02-22T03:04:06.511Z,-0.53
2019-02-22T03:05:10.141Z,-0.59
2019-02-22T03:06:21.393Z,-0.63
2019-02-22T03:07:26.803Z,-0.67
2019-02-22T03:08:32.078Z,-0.72
2019-02-22T03:09:35.661Z,-0.73
2019-02-22T03:10:39.301Z,-0.68
2019-02-22T03:11:42.947Z,-0.56
2019-02-22T03:12:46.620Z,-0.44
2019-02-22T03:13:50.258Z,-0.48
2019-02-22T03:14:53.908Z,-0.57
2019-02-22T03:15:57.549Z,-0.57
2019-02-22T03:17:01.196Z,-0.55
2019-02-22T03:18:04.867Z,-0.57
2019-02-22T03:19:08.505Z,-0.61
2019-02-22T03:20:12.333Z,-0.57
2019-02-22T03:21:15.973Z,-0.53
2019-02-22T03:22:19.612Z,-0.53
2019-02-22T03:23:23.650Z,-0.58
2019-02-22T03:24:27.660Z,-0.53
2019-02-22T03:25:31.304Z,-0.59
2019-02-22T03:26:34.945Z,-0.59
2019-02-22T03:27:38.582Z,-0.55
2019-02-22T03:28:42.298Z,-0.53
2019-02-22T03:29:45.966Z,-0.45
2019-02-22T03:30:49.591Z,-0.46
2019-02-22T03:31:53.238Z,-0.48
2019-02-22T03:32:56.888Z,-0.49
2019-02-22T03:34:00.567Z,-0.50
2019-02-22T03:35:05.040Z,-0.60
2019-02-22T03:36:08.742Z,-0.68
2019-02-22T03:37:12.311Z,-0.69
2019-02-22T03:38:15.952Z,-0.66
2019-02-22T03:39:19.627Z,-0.67
2019-02-22T03:40:23.347Z,-0.74
2019-02-22T03:41:32.961Z,-0.71
2019-02-22T03:42:32.358Z,-0.74
2019-02-22T03:43:35.952Z,-0.80
2019-02-22T03:44:39.620Z,-0.91
2019-02-22T03:45:43.257Z,-0.96
2019-02-22T03:46:46.824Z,-0.99
2019-02-22T03:47:50.473Z,-1.03
2019-02-22T03:48:54.105Z,-1.05
2019-02-22T03:49:58.179Z,-1.03
2019-02-22T03:51:01.821Z,-1.00
2019-02-22T03:52:19.165Z,-0.91
2019-02-22T03:53:27.132Z,-0.92
2019-02-22T03:54:30.769Z,-0.91
2019-02-22T03:55:34.439Z,-0.95
2019-02-22T03:56:38.156Z,-0.95
2019-02-22T03:57:41.800Z,-0.90
2019-02-22T03:58:45.448Z,-0.96
2019-02-22T03:59:51.236Z,-1.01
2019-02-22T04:00:54.662Z,-0.99
2019-02-22T04:01:58.290Z,-1.00
2019-02-22T04:03:01.929Z,-0.95
2019-02-22T04:04:05.679Z,-0.96
2019-02-22T04:05:09.423Z,-0.92
2019-02-22T04:06:13.102Z,-0.91
2019-02-22T04:07:16.880Z,-0.92
2019-02-22T04:08:20.529Z,-0.93
2019-02-22T04:09:24.473Z,-0.87
2019-02-22T04:10:28.055Z,-0.86
2019-02-22T04:11:31.703Z,-0.90
2019-02-22T04:12:35.390Z,-0.85
2019-02-22T04:13:39.039Z,-0.83
2019-02-22T04:14:43.149Z,-0.82
2019-02-22T04:15:46.866Z,-0.84
2019-02-22T04:16:50.477Z,-0.91
2019-02-22T04:17:54.101Z,-0.91
2019-02-22T04:18:57.695Z,-0.97
2019-02-22T04:20:01.452Z,-0.97
2019-02-22T04:21:05.102Z,-0.88
2019-02-22T04:22:08.780Z,-0.83
2019-02-22T04:23:12.430Z,-0.82
2019-02-22T04:24:16.383Z,-0.76
2019-02-22T04:25:20.027Z,-0.69
2019-02-22T04:26:23.673Z,-0.73
2019-02-22T04:27:27.342Z,-0.83
2019-02-22T04:28:30.983Z,-0.92
2019-02-22T04:29:34.628Z,-0.99
2019-02-22T04:30:38.275Z,-1.00
2019-02-22T04:31:41.915Z,-0.98
2019-02-22T04:32:45.577Z,-0.95
2019-02-22T04:33:49.218Z,-1.01
2019-02-22T04:34:52.945Z,-1.01
2019-02-22T04:35:56.788Z,-0.99
2019-02-22T04:37:00.360Z,-0.94
2019-02-22T04:38:04.031Z,-1.00
2019-02-22T04:39:07.872Z,-0.96
2019-02-22T04:40:11.586Z,-0.97
2019-02-22T04:41:15.227Z,-0.93
2019-02-22T04:42:18.860Z,-0.95
2019-02-22T04:43:22.535Z,-0.97
2019-02-22T04:44:26.186Z,-1.00
2019-02-22T04:45:29.919Z,-1.06
2019-02-22T04:46:33.984Z,-1.02
2019-02-22T04:47:37.630Z,-1.07
2019-02-22T04:48:41.310Z,-1.08
2019-02-22T04:49:44.908Z,-1.05
2019-02-22T04:50:48.954Z,-0.97
2019-02-22T04:51:52.597Z,-0.91
2019-02-22T04:52:56.167Z,-0.89
2019-02-22T04:53:59.767Z,-0.86
2019-02-22T04:55:03.796Z,-0.90
2019-02-22T04:56:07.451Z,-0.88
2019-02-22T04:57:11.022Z,-0.87
2019-02-22T04:58:14.672Z,-0.91
2019-02-22T04:59:18.390Z,-0.90
2019-02-22T05:00:22.035Z,-0.86
2019-02-22T05:01:25.697Z,-0.84
2019-02-22T05:02:29.332Z,-0.89
2019-02-22T05:03:32.971Z,-0.87
2019-02-22T05:04:36.706Z,-0.76
2019-02-22T05:05:40.339Z,-0.85
2019-02-22T05:06:43.985Z,-0.86
2019-02-22T05:07:47.540Z,-0.90
2019-02-22T05:08:51.179Z,-0.90
2019-02-22T05:09:54.855Z,-0.86
2019-02-22T05:10:58.501Z,-0.84
2019-02-22T05:12:10.477Z,-0.94
2019-02-22T05:13:07.438Z,-1.06
2019-02-22T05:14:11.087Z,-1.12
2019-02-22T05:15:14.802Z,-1.19
2019-02-22T05:16:18.483Z,-1.14
2019-02-22T05:17:22.477Z,-1.18
2019-02-22T05:18:26.045Z,-1.22
2019-02-22T05:19:29.690Z,-1.27
2019-02-22T05:20:33.360Z,-1.21
2019-02-22T05:21:37.001Z,-1.11
2019-02-22T05:22:40.639Z,-1.06
2019-02-22T05:23:44.343Z,-1.04
2019-02-22T05:24:47.983Z,-1.12
2019-02-22T05:25:51.666Z,-1.17
2019-02-22T05:26:55.298Z,-1.20
2019-02-22T05:27:58.947Z,-1.21
2019-02-22T05:29:02.580Z,-1.25
2019-02-22T05:30:08.128Z,-1.26
2019-02-22T05:31:11.723Z,-1.24
2019-02-22T05:32:15.778Z,-1.26
2019-02-22T05:33:19.400Z,-1.16
2019-02-22T05:34:23.031Z,-1.11
2019-02-22T05:35:26.743Z,-1.10
2019-02-22T05:36:30.803Z,-1.05
2019-02-22T05:37:34.803Z,-0.95
2019-02-22T05:38:38.538Z,-0.81
2019-02-22T05:39:42.211Z,-0.75
2019-02-22T05:40:45.823Z,-0.75
2019-02-22T05:41:49.421Z,-0.74
2019-02-22T05:42:53.065Z,-0.68
2019-02-22T05:43:56.709Z,-0.69
2019-02-22T05:45:00.449Z,-0.63
2019-02-22T05:46:04.543Z,-0.54
2019-02-22T05:47:08.189Z,-0.53
2019-02-22T05:48:12.134Z,-0.57
2019-02-22T05:49:15.800Z,-0.54
2019-02-22T05:50:19.367Z,-0.50
2019-02-22T05:51:23.018Z,-0.50
2019-02-22T05:52:26.688Z,-0.49
2019-02-22T05:53:30.482Z,-0.53
2019-02-22T05:54:34.153Z,-0.47
2019-02-22T05:55:37.788Z,-0.42
2019-02-22T05:56:41.359Z,-0.47
2019-02-22T05:57:45.031Z,-0.45
2019-02-22T05:58:48.715Z,-0.44
2019-02-22T05:59:52.699Z,-0.40
2019-02-22T06:00:56.338Z,-0.41
2019-02-22T06:02:00.020Z,-0.45
2019-02-22T06:03:03.621Z,-0.45
2019-02-22T06:04:07.271Z,-0.42
2019-02-22T06:05:10.912Z,-0.34
2019-02-22T06:06:14.557Z,-0.30
2019-02-22T06:07:18.194Z,-0.31
2019-02-22T06:08:21.861Z,-0.28
2019-02-22T06:09:25.504Z,-0.22
2019-02-22T06:10:29.142Z,-0.22
2019-02-22T06:11:32.777Z,-0.11
2019-02-22T06:12:36.345Z,-0.04
2019-02-22T06:13:40.044Z,-0.03
2019-02-22T06:14:43.682Z,0.05
2019-02-22T06:15:47.258Z,0.13
2019-02-22T06:16:50.945Z,0.10
2019-02-22T06:17:54.574Z,0.06
2019-02-22T06:18:58.239Z,0.06
2019-02-22T06:20:01.868Z,0.00
2019-02-22T06:21:05.506Z,-0.07
2019-02-22T06:22:09.149Z,0.08
2019-02-22T06:23:12.766Z,0.15
2019-02-22T06:24:16.429Z,0.15
2019-02-22T06:25:20.075Z,0.11
2019-02-22T06:26:24.094Z,0.12
2019-02-22T06:27:27.710Z,0.21
2019-02-22T06:28:31.348Z,0.36
2019-02-22T06:29:35.351Z,0.35
2019-02-22T06:30:39.020Z,0.24
2019-02-22T06:31:42.662Z,0.21
2019-02-22T06:32:46.297Z,0.24
2019-02-22T06:33:49.941Z,0.22
2019-02-22T06:34:53.603Z,0.22
2019-02-22T06:35:57.284Z,0.28
2019-02-22T06:37:02.323Z,0.37
2019-02-22T06:38:06.201Z,0.43
2019-02-22T06:39:09.850Z,0.49
2019-02-22T06:40:13.526Z,0.53
2019-02-22T06:41:17.166Z,0.62
2019-02-22T06:42:20.844Z,0.71
2019-02-22T06:43:24.568Z,0.83
2019-02-22T06:44:28.131Z,0.96
2019-02-22T06:45:31.792Z,1.04
2019-02-22T06:46:35.368Z,1.02
2019-02-22T06:47:39.006Z,1.08
2019-02-22T06:48:42.707Z,1.09
2019-02-22T06:49:46.331Z,1.07
2019-02-22T06:50:50.012Z,1.10
2019-02-22T06:51:53.648Z,1.21
2019-02-22T06:52:57.284Z,1.32
2019-02-22T06:54:00.998Z,1.34
2019-02-22T06:55:05.835Z,1.28
2019-02-22T06:56:09.506Z,1.22
2019-02-22T06:57:13.428Z,1.36
2019-02-22T06:58:16.994Z,1.45
2019-02-22T06:59:20.638Z,1.45
2019-02-22T07:00:24.274Z,1.54
2019-02-22T07:01:28.454Z,1.47
2019-02-22T07:02:32.087Z,1.34
2019-02-22T07:03:35.751Z,1.25
2019-02-22T07:04:39.401Z,1.27
2019-02-22T07:05:43.067Z,1.28
2019-02-22T07:06:47.061Z,1.22
2019-02-22T07:07:50.842Z,1.31
2019-02-22T07:08:54.469Z,1.36
2019-02-22T07:09:58.116Z,1.48
2019-02-22T07:11:03.397Z,1.62
2019-02-22T07:12:11.724Z,1.63
2019-02-22T07:13:15.363Z,1.70
2019-02-22T07:14:19.021Z,1.69
2019-02-22T07:15:22.642Z,1.63
2019-02-22T07:16:26.290Z,1.65
2019-02-22T07:17:29.961Z,1.64
2019-02-22T07:18:33.603Z,1.63
2019-02-22T07:19:37.232Z,1.61
2019-02-22T07:20:40.946Z,1.75
2019-02-22T07:21:52.735Z,1.81
2019-02-22T07:22:49.915Z,1.76
2019-02-22T07:23:53.483Z,1.85
2019-02-22T07:24:57.060Z,1.83
2019-02-22T07:26:00.733Z,1.95
2019-02-22T07:27:04.366Z,2.09
2019-02-22T07:28:08.004Z,2.15
2019-02-22T07:29:11.654Z,2.22
2019-02-22T07:30:15.301Z,2.25
2019-02-22T07:31:18.978Z,2.31
2019-02-22T07:32:22.815Z,2.28
2019-02-22T07:33:26.466Z,2.32
2019-02-22T07:34:30.472Z,2.31
2019-02-22T07:35:34.127Z,2.38
2019-02-22T07:36:37.788Z,2.40
2019-02-22T07:37:41.520Z,2.42
2019-02-22T07:38:45.163Z,2.45
2019-02-22T07:39:48.808Z,2.53
2019-02-22T07:40:52.448Z,2.56
2019-02-22T07:41:56.199Z,2.70
2019-02-22T07:43:07.795Z,2.77
2019-02-22T07:44:06.383Z,2.88
2019-02-22T07:45:11.227Z,2.98
2019-02-22T07:46:14.945Z,2.89
2019-02-22T07:47:18.545Z,2.84
2019-02-22T07:48:22.189Z,2.77
2019-02-22T07:49:27.030Z,2.80
2019-02-22T07:50:30.666Z,2.86
2019-02-22T07:51:34.302Z,2.86
2019-02-22T07:52:38.036Z,2.98
2019-02-22T07:53:41.736Z,2.99
2019-02-22T07:54:45.401Z,2.95
2019-02-22T07:55:49.037Z,3.00
2019-02-22T07:56:52.839Z,3.04
2019-02-22T07:57:56.491Z,3.18
2019-02-22T07:59:02.904Z,3.12
2019-02-22T08:00:11.605Z,3.09
2019-02-22T08:01:15.353Z,3.06
2019-02-22T08:02:19.071Z,3.11
2019-02-22T08:03:22.666Z,3.05
2019-02-22T08:04:26.311Z,3.06
2019-02-22T08:05:30.177Z,3.03
2019-02-22T08:06:33.740Z,2.97
2019-02-22T08:07:37.379Z,3.08
2019-02-22T08:08:41.342Z,3.21
2019-02-22T08:09:45.012Z,3.30
2019-02-22T08:10:48.656Z,3.41
2019-02-22T08:11:52.291Z,3.53
2019-02-22T08:12:55.991Z,3.71
2019-02-22T08:13:59.653Z,3.69
2019-02-22T08:15:03.299Z,3.67
2019-02-22T08:16:06.940Z,3.81
2019-02-22T08:17:10.518Z,3.97
2019-02-22T08:18:14.165Z,3.86
2019-02-22T08:19:18.206Z,4.05
2019-02-22T08:20:21.947Z,4.25
2019-02-22T08:21:25.517Z,4.40
2019-02-22T08:22:29.154Z,4.58
2019-02-22T08:23:32.792Z,4.61
2019-02-22T08:24:36.453Z,4.38
2019-02-22T08:25:40.094Z,4.22
2019-02-22T08:26:44.032Z,4.27
2019-02-22T08:27:53.883Z,4.37
2019-02-22T08:28:52.981Z,4.32
2019-02-22T08:29:56.689Z,4.38
2019-02-22T08:31:00.384Z,4.55
2019-02-22T08:32:04.329Z,4.72
2019-02-22T08:33:07.971Z,4.83
2019-02-22T08:34:11.608Z,4.85
2019-02-22T08:35:15.621Z,4.92
2019-02-22T08:36:19.280Z,4.90
2019-02-22T08:37:22.928Z,4.93
2019-02-22T08:38:26.594Z,4.90
2019-02-22T08:39:30.156Z,4.79
2019-02-22T08:40:33.841Z,4.62
2019-02-22T08:41:37.487Z,4.58
2019-02-22T08:42:41.132Z,4.58
2019-02-22T08:44:04.623Z,4.56
2019-02-22T08:45:09.902Z,4.59
2019-02-22T08:46:13.596Z,4.46
2019-02-22T08:47:17.240Z,4.36
2019-02-22T08:48:20.903Z,4.30
2019-02-22T08:49:24.544Z,4.24
2019-02-22T08:50:28.261Z,4.24
2019-02-22T08:51:31.868Z,4.25
2019-02-22T08:52:35.437Z,4.27
2019-02-22T08:53:39.081Z,4.19
2019-02-22T08:54:47.147Z,4.33
2019-02-22T08:55:48.456Z,4.50
2019-02-22T08:56:52.113Z,4.57
2019-02-22T08:57:55.781Z,4.57
2019-02-22T08:58:59.424Z,4.61
2019-02-22T09:00:03.074Z,4.64
2019-02-22T09:01:06.722Z,4.60
2019-02-22T09:02:10.315Z,4.52
2019-02-22T09:03:13.964Z,4.50
2019-02-22T09:04:17.618Z,4.40
2019-02-22T09:05:21.269Z,4.42
2019-02-22T09:06:24.921Z,4.40
2019-02-22T09:07:28.665Z,4.56
2019-02-22T09:08:32.259Z,4.59
2019-02-22T09:09:36.222Z,4.54
2019-02-22T09:10:39.867Z,4.62
2019-02-22T09:11:43.577Z,4.68
2019-02-22T09:12:47.195Z,4.78
2019-02-22T09:13:50.835Z,4.87
2019-02-22T09:14:54.568Z,4.88
2019-02-22T09:15:58.624Z,4.87
2019-02-22T09:17:02.266Z,4.79
2019-02-22T09:18:05.927Z,4.73
2019-02-22T09:19:09.572Z,4.55
2019-02-22T09:20:13.728Z,4.48
2019-02-22T09:21:17.374Z,4.49
2019-02-22T09:22:23.109Z,4.43
2019-02-22T09:23:26.396Z,4.52
2019-02-22T09:24:30.594Z,4.48
2019-02-22T09:25:34.245Z,4.42
2019-02-22T09:26:37.895Z,4.46
2019-02-22T09:27:41.541Z,4.51
2019-02-22T09:28:45.230Z,4.62
2019-02-22T09:29:58.515Z,4.66
2019-02-22T09:30:54.248Z,4.75
2019-02-22T09:31:57.933Z,4.78
2019-02-22T09:33:01.876Z,4.75
2019-02-22T09:34:05.549Z,4.64
2019-02-22T09:35:11.013Z,4.57
2019-02-22T09:36:14.655Z,4.50
2019-02-22T09:37:18.302Z,4.45
2019-02-22T09:38:21.944Z,4.45
2019-02-22T09:39:25.641Z,4.42
2019-02-22T09:40:29.286Z,4.53
2019-02-22T09:41:33.037Z,4.59
2019-02-22T09:42:36.690Z,4.56
2019-02-22T09:43:40.260Z,4.51
2019-02-22T09:44:43.936Z,4.53
2019-02-22T09:45:47.583Z,4.55
2019-02-22T09:46:51.559Z,4.47
2019-02-22T09:47:55.204Z,4.41
2019-02-22T09:48:58.775Z,4.44
2019-02-22T09:50:02.456Z,4.50
2019-02-22T09:51:06.099Z,4.68
2019-02-22T09:52:09.743Z,4.89
2019-02-22T09:53:13.400Z,5.00
2019-02-22T09:54:17.047Z,4.93
2019-02-22T09:55:20.727Z,4.98
2019-02-22T09:56:24.371Z,4.99
2019-02-22T09:57:28.027Z,5.13
2019-02-22T09:58:31.602Z,5.29
2019-02-22T09:59:35.233Z,5.51
2019-02-22T10:00:38.907Z,5.78
2019-02-22T10:01:42.549Z,5.86
2019-02-22T10:02:46.407Z,5.95
2019-02-22T10:03:49.984Z,6.00
2019-02-22T10:04:55.539Z,6.20
2019-02-22T10:05:59.021Z,6.51
2019-02-22T10:07:02.652Z,6.69
2019-02-22T10:08:06.304Z,6.74
2019-02-22T10:09:09.948Z,6.97
2019-02-22T10:10:13.660Z,7.19
2019-02-22T10:11:17.321Z,7.34
2019-02-22T10:12:20.957Z,7.50
2019-02-22T10:13:24.723Z,7.62
2019-02-22T10:14:28.664Z,7.74
2019-02-22T10:15:32.381Z,7.92
2019-02-22T10:16:36.056Z,8.19
2019-02-22T10:17:39.689Z,8.49
2019-02-22T10:18:43.325Z,8.76
2019-02-22T10:19:47.038Z,8.95
2019-02-22T10:20:50.677Z,9.05
2019-02-22T10:21:54.349Z,9.01
2019-02-22T10:22:57.984Z,8.76
2019-02-22T10:24:01.651Z,8.69
2019-02-22T10:25:07.193Z,8.65
2019-02-22T10:26:10.822Z,8.69
2019-02-22T10:27:14.492Z,8.62
2019-02-22T10:28:18.348Z,8.49
2019-02-22T10:29:22.023Z,8.27
2019-02-22T10:30:26.022Z,8.12
2019-02-22T10:31:29.759Z,8.20
2019-02-22T10:32:33.354Z,8.31
2019-02-22T10:33:37.145Z,8.26
2019-02-22T10:34:40.804Z,8.37
2019-02-22T10:35:44.433Z,8.32
2019-02-22T10:36:48.128Z,8.26
2019-02-22T10:37:51.816Z,8.27
2019-02-22T10:38:55.452Z,8.15
2019-02-22T10:39:59.099Z,8.05
2019-02-22T10:41:02.732Z,7.87
2019-02-22T10:42:06.362Z,7.71
2019-02-22T10:43:10.035Z,7.73
2019-02-22T10:44:17.647Z,7.65
2019-02-22T10:45:19.079Z,7.49
2019-02-22T10:46:22.711Z,7.37
2019-02-22T10:47:26.349Z,7.22
2019-02-22T10:48:30.021Z,7.25
2019-02-22T10:49:33.718Z,7.52
2019-02-22T10:50:37.362Z,7.62
2019-02-22T10:51:41.006Z,7.70
2019-02-22T10:52:44.652Z,7.67
2019-02-22T10:53:48.398Z,7.57
2019-02-22T10:54:52.012Z,7.78
2019-02-22T10:55:56.292Z,7.88
2019-02-22T10:56:59.923Z,7.97
2019-02-22T10:58:03.476Z,7.85
2019-02-22T10:59:07.143Z,7.87
2019-02-22T11:00:13.398Z,7.99
2019-02-22T11:01:17.109Z,7.97
2019-02-22T11:02:20.746Z,7.86
2019-02-22T11:03:24.381Z,7.96
2019-02-22T11:04:28.057Z,8.10
2019-02-22T11:05:31.683Z,8.31
2019-02-22T11:06:35.318Z,8.37
2019-02-22T11:07:38.957Z,8.45
2019-02-22T11:08:42.598Z,8.48
2019-02-22T11:09:46.284Z,8.58
2019-02-22T11:10:49.921Z,8.56
2019-02-22T11:11:54.923Z,8.53
2019-02-22T11:12:59.349Z,8.54
2019-02-22T11:14:03.015Z,8.54
2019-02-22T11:15:09.164Z,8.54
2019-02-22T11:16:12.730Z,8.59
2019-02-22T11:17:16.363Z,8.51
2019-02-22T11:18:19.999Z,8.41
2019-02-22T11:19:23.640Z,8.31
2019-02-22T11:20:27.314Z,8.25
2019-02-22T11:21:30.883Z,8.21
2019-02-22T11:22:34.520Z,8.21
2019-02-22T11:23:38.162Z,8.04
2019-02-22T11:24:41.795Z,7.98
2019-02-22T11:25:45.464Z,7.87
2019-02-22T11:26:49.102Z,7.91
2019-02-22T11:27:52.767Z,7.91
2019-02-22T11:28:56.407Z,7.84
2019-02-22T11:30:00.005Z,7.76
2019-02-22T11:31:03.642Z,7.88
2019-02-22T11:32:07.288Z,7.96
2019-02-22T11:33:10.929Z,7.81
2019-02-22T11:34:14.485Z,7.77
2019-02-22T11:35:18.144Z,7.75
2019-02-22T11:36:21.834Z,7.67
2019-02-22T11:37:25.474Z,7.60
2019-02-22T11:38:29.182Z,7.53
2019-02-22T11:39:32.827Z,7.54
2019-02-22T11:40:36.489Z,7.64
2019-02-22T11:41:40.050Z,7.59
2019-02-22T11:42:43.681Z,7.66
2019-02-22T11:43:47.319Z,7.71
2019-02-22T11:44:50.958Z,7.88
2019-02-22T11:45:54.631Z,7.92
2019-02-22T11:46:58.252Z,7.92
2019-02-22T11:48:09.050Z,7.79
2019-02-22T11:49:07.272Z,7.71
2019-02-22T11:50:12.207Z,7.75
2019-02-22T11:51:15.890Z,7.84
2019-02-22T11:52:19.520Z,7.88
2019-02-22T11:53:23.155Z,8.02
2019-02-22T11:54:26.834Z,8.21
2019-02-22T11:55:31.523Z,8.33
2019-02-22T11:56:35.286Z,8.33
2019-02-22T11:57:38.903Z,8.21
2019-02-22T11:58:42.535Z,8.10
2019-02-22T11:59:46.222Z,7.96
2019-02-22T12:00:49.863Z,7.95
2019-02-22T12:01:53.533Z,7.89
2019-02-22T12:02:57.238Z,8.02
2019-02-22T12:04:00.878Z,8.02
2019-02-22T12:05:08.038Z,8.04
2019-02-22T12:06:11.675Z,8.02
2019-02-22T12:07:15.349Z,7.95
2019-02-22T12:08:18.996Z,7.82
2019-02-22T12:09:22.779Z,7.65
2019-02-22T12:10:26.411Z,7.54
2019-02-22T12:11:30.041Z,7.50
2019-02-22T12:12:34.655Z,7.45
2019-02-22T12:13:38.398Z,7.45
2019-02-22T12:14:51.045Z,7.42
2019-02-22T12:15:47.393Z,7.29
2019-02-22T12:16:51.037Z,7.24
2019-02-22T12:17:54.654Z,7.23
2019-02-22T12:18:58.289Z,7.26
2019-02-22T12:20:01.952Z,7.26
2019-02-22T12:21:05.592Z,7.28
2019-02-22T12:22:09.236Z,7.29
2019-02-22T12:23:13.961Z,7.37
2019-02-22T12:24:17.654Z,7.33
2019-02-22T12:25:21.300Z,7.34
2019-02-22T12:26:24.944Z,7.35
2019-02-22T12:27:28.581Z,7.33
2019-02-22T12:28:32.270Z,7.32
2019-02-22T12:29:35.901Z,7.28
2019-02-22T12:30:39.532Z,7.26
2019-02-22T12:31:43.166Z,7.26
2019-02-22T12:32:47.130Z,7.32
2019-02-22T12:33:50.876Z,7.32
2019-02-22T12:34:54.445Z,7.34
2019-02-22T12:35:58.082Z,7.31
2019-02-22T12:37:01.643Z,7.28
2019-02-22T12:38:05.276Z,7.24
2019-02-22T12:39:09.341Z,7.28
2019-02-22T12:40:13.275Z,7.29
2019-02-22T12:41:16.911Z,7.29
2019-02-22T12:42:20.541Z,7.35
2019-02-22T12:43:24.277Z,7.34
2019-02-22T12:44:27.868Z,7.42
2019-02-22T12:45:31.427Z,7.49
2019-02-22T12:46:35.069Z,7.50
2019-02-22T12:47:38.642Z,7.41
2019-02-22T12:48:42.197Z,7.40
2019-02-22T12:49:46.131Z,7.42
2019-02-22T12:50:49.845Z,7.42
2019-02-22T12:51:53.414Z,7.51
2019-02-22T12:52:57.047Z,7.56
2019-02-22T12:54:00.981Z,7.56
2019-02-22T12:55:06.462Z,7.54
2019-02-22T12:56:10.093Z,7.45
2019-02-22T12:57:13.722Z,7.42
2019-02-22T12:58:17.474Z,7.46
2019-02-22T12:59:21.108Z,7.47
2019-02-22T13:00:24.769Z,7.40
2019-02-22T13:01:28.419Z,7.40
2019-02-22T13:02:31.981Z,7.34
2019-02-22T13:03:36.282Z,7.36
2019-02-22T13:04:39.926Z,7.41
2019-02-22T13:05:43.662Z,7.47
2019-02-22T13:06:47.289Z,7.46
2019-02-22T13:07:52.688Z,7.52
2019-02-22T13:08:56.362Z,7.54
2019-02-22T13:10:00.001Z,7.54
2019-02-22T13:11:03.670Z,7.57
2019-02-22T13:12:13.904Z,7.58
2019-02-22T13:13:12.674Z,7.59
2019-02-22T13:14:16.342Z,7.64
2019-02-22T13:15:19.915Z,7.60
2019-02-22T13:16:23.572Z,7.57
2019-02-22T13:17:30.759Z,7.62
2019-02-22T13:18:32.492Z,7.64
2019-02-22T13:19:37.173Z,7.67
2019-02-22T13:20:40.687Z,7.64
2019-02-22T13:21:44.361Z,7.69
2019-02-22T13:22:47.930Z,7.68
2019-02-22T13:23:51.493Z,7.66
2019-02-22T13:24:55.126Z,7.61
2019-02-22T13:25:59.152Z,7.66
2019-02-22T13:27:02.931Z,7.65
2019-02-22T13:28:06.561Z,7.73
2019-02-22T13:29:10.192Z,7.75
2019-02-22T13:30:15.369Z,7.80
2019-02-22T13:31:29.392Z,7.81
2019-02-22T13:32:24.476Z,7.94
2019-02-22T13:33:28.105Z,7.97
2019-02-22T13:34:31.741Z,7.83
2019-02-22T13:35:35.400Z,7.86
2019-02-22T13:36:39.042Z,7.86
2019-02-22T13:37:42.712Z,7.94
2019-02-22T13:38:46.345Z,8.00
2019-02-22T13:39:49.977Z,7.99
2019-02-22T13:40:53.653Z,7.98
2019-02-22T13:42:02.428Z,7.95
2019-02-22T13:43:06.207Z,7.87
2019-02-22T13:44:10.001Z,7.79
2019-02-22T13:45:25.580Z,7.75
2019-02-22T13:46:19.778Z,7.79
2019-02-22T13:47:23.411Z,7.83
2019-02-22T13:48:27.085Z,7.84
2019-02-22T13:49:30.717Z,7.75
2019-02-22T13:50:34.460Z,7.61
2019-02-22T13:51:38.083Z,7.58
2019-02-22T13:52:42.616Z,7.58
2019-02-22T13:53:46.551Z,7.64
2019-02-22T13:54:50.191Z,7.72
2019-02-22T13:55:53.844Z,7.71
2019-02-22T13:56:57.456Z,7.69
2019-02-22T13:58:01.458Z,7.70
2019-02-22T13:59:05.430Z,7.65
2019-02-22T14:00:15.048Z,7.58
2019-02-22T14:01:19.125Z,7.57
2019-02-22T14:02:22.761Z,7.53